createdAt,value
2019-02-22T00:00:10.226Z,99996.96
2019-02-22T00:02:40.611Z,99995.12
2019-02-22T00:05:09.571Z,99998.05
2019-02-22T00:07:38.368Z,99998.39
2019-02-22T00:10:08.917Z,99998.37
2019-02-22T00:12:37.755Z,99991.37
2019-02-22T00:15:07.459Z,99995.80
2019-02-22T00:17:36.923Z,99999.58
2019-02-22T00:20:06.022Z,100000.73
2019-02-22T00:22:34.807Z,100007.59
2019-02-22T00:25:03.771Z,99999.81
2019-02-22T00:27:32.560Z,100002.77
2019-02-22T00:30:01.349Z,99981.30
2019-02-22T00:32:30.150Z,99981.30
2019-02-22T00:34:59.098Z,99988.44
2019-02-22T00:37:28.317Z,99991.17
2019-02-22T00:39:57.452Z,100000.16
2019-02-22T00:42:26.272Z,100001.38
2019-02-22T00:44:55.166Z,99993.98
2019-02-22T00:47:24.028Z,100006.19
2019-02-22T00:49:52.816Z,100002.23
2019-02-22T00:52:21.810Z,99995.02
2019-02-22T00:54:50.764Z,99994.41
2019-02-22T00:57:19.589Z,99990.47
2019-02-22T00:59:48.466Z,99995.98
2019-02-22T01:02:17.255Z,99996.08
2019-02-22T01:04:46.372Z,99997.20
2019-02-22T01:07:15.249Z,99994.37
2019-02-22T01:09:44.114Z,99995.62
2019-02-22T01:12:12.924Z,99994.00
2019-02-22T01:14:41.716Z,100004.99
2019-02-22T01:17:10.582Z,100001.02
2019-02-22T01:19:39.539Z,100006.70
2019-02-22T01:22:08.400Z,100004.95
2019-02-22T01:24:37.180Z,99997.50
2019-02-22T01:27:06.060Z,99994.11
2019-02-22T01:29:36.095Z,99996.61
2019-02-22T01:32:04.934Z,99999.79
2019-02-22T01:34:33.841Z,100003.48
2019-02-22T01:37:02.650Z,100004.13
2019-02-22T01:39:31.433Z,100008.19
2019-02-22T01:42:00.388Z,100009.13
2019-02-22T01:44:29.171Z,100004.27
2019-02-22T01:46:57.993Z,100003.20
2019-02-22T01:49:26.850Z,100003.85
2019-02-22T01:51:55.641Z,100014.08
2019-02-22T01:54:24.444Z,100007.64
2019-02-22T01:56:53.297Z,100012.61
2019-02-22T01:59:22.250Z,100014.99
2019-02-22T02:01:51.058Z,100009.01
2019-02-22T02:04:19.851Z,100012.82
2019-02-22T02:06:48.757Z,100017.13
2019-02-22T02:09:20.667Z,100010.56
2019-02-22T02:11:49.647Z,100014.53
2019-02-22T02:14:18.465Z,100015.20
2019-02-22T02:16:47.254Z,100017.83
2019-02-22T02:19:16.043Z,100016.09
2019-02-22T02:21:44.839Z,100017.62
2019-02-22T02:24:13.716Z,100015.06
2019-02-22T02:26:42.496Z,100026.94
2019-02-22T02:29:12.285Z,100025.25
2019-02-22T02:31:41.093Z,100022.02
2019-02-22T02:34:09.894Z,100028.70
2019-02-22T02:36:38.694Z,100038.82
2019-02-22T02:39:08.127Z,100034.53
2019-02-22T02:41:36.945Z,100036.51
2019-02-22T02:44:05.796Z,100035.45
2019-02-22T02:46:34.588Z,100039.05
2019-02-22T02:49:03.475Z,100037.19
2019-02-22T02:51:32.260Z,100042.34
2019-02-22T02:54:01.050Z,100039.66
2019-02-22T02:56:29.903Z,100045.83
2019-02-22T02:58:58.690Z,100046.98
2019-02-22T03:01:27.494Z,100050.53
2019-02-22T03:03:56.488Z,100044.70
2019-02-22T03:06:32.323Z,100050.42
2019-02-22T03:09:01.128Z,100047.34
2019-02-22T03:11:29.976Z,100055.73
2019-02-22T03:13:58.795Z,100056.34
2019-02-22T03:16:27.579Z,100054.83
2019-02-22T03:18:56.451Z,100061.44
2019-02-22T03:21:25.243Z,100062.36
2019-02-22T03:23:54.050Z,100067.91
2019-02-22T03:26:22.853Z,100066.73
2019-02-22T03:28:51.728Z,100072.84
2019-02-22T03:31:20.587Z,100072.84
2019-02-22T03:33:49.390Z,100076.90
2019-02-22T03:36:18.177Z,100078.47
2019-02-22T03:38:46.999Z,100076.38
2019-02-22T03:41:15.776Z,100077.32
2019-02-22T03:43:45.568Z,100084.23
2019-02-22T03:46:14.369Z,100080.84
2019-02-22T03:48:43.169Z,100084.02
2019-02-22T03:51:11.973Z,100085.34
2019-02-22T03:53:50.016Z,100085.77
2019-02-22T03:56:19.062Z,100078.22
2019-02-22T03:58:48.085Z,100086.47
2019-02-22T04:01:16.943Z,100088.42
2019-02-22T04:03:46.541Z,100085.03
2019-02-22T04:06:15.340Z,100083.23
2019-02-22T04:08:44.134Z,100092.19
2019-02-22T04:11:12.919Z,100093.41
2019-02-22T04:13:41.877Z,100099.64
2019-02-22T04:16:10.671Z,100099.88
2019-02-22T04:18:39.647Z,100104.31
2019-02-22T04:21:08.423Z,100104.89
2019-02-22T04:23:37.399Z,100106.60
2019-02-22T04:26:06.170Z,100104.80
2019-02-22T04:28:35.021Z,100102.11
2019-02-22T04:31:03.809Z,100113.69
2019-02-22T04:33:32.700Z,100115.86
2019-02-22T04:36:01.513Z,100115.70
2019-02-22T04:38:30.276Z,100113.31
2019-02-22T04:40:59.060Z,100118.63
2019-02-22T04:43:27.939Z,100111.42
2019-02-22T04:45:56.803Z,100114.20
2019-02-22T04:48:25.601Z,100120.89
2019-02-22T04:50:54.479Z,100117.56
2019-02-22T04:53:23.277Z,100114.58
2019-02-22T04:55:52.074Z,100111.91
2019-02-22T04:58:20.871Z,100115.28
2019-02-22T05:00:49.732Z,100122.42
2019-02-22T05:03:18.537Z,100119.06
2019-02-22T05:05:47.966Z,100134.20
2019-02-22T05:08:16.775Z,100132.33
2019-02-22T05:10:45.727Z,100135.14
2019-02-22T05:13:14.608Z,100133.55
2019-02-22T05:15:43.478Z,100133.64
2019-02-22T05:18:12.372Z,100127.72
2019-02-22T05:20:41.278Z,100129.36
2019-02-22T05:23:10.086Z,100128.12
2019-02-22T05:25:38.921Z,100135.52
2019-02-22T05:28:07.726Z,100141.35
2019-02-22T05:30:36.702Z,100148.17
2019-02-22T05:33:05.573Z,100148.63
2019-02-22T05:35:34.414Z,100153.97
2019-02-22T05:38:03.227Z,100162.98
2019-02-22T05:40:32.051Z,100167.37
2019-02-22T05:43:00.848Z,100162.37
2019-02-22T05:45:29.672Z,100175.21
2019-02-22T05:47:58.491Z,100169.41
2019-02-22T05:50:27.318Z,100165.02
2019-02-22T05:52:56.128Z,100154.84
2019-02-22T05:55:24.937Z,100167.88
2019-02-22T05:57:53.734Z,100174.43
2019-02-22T06:00:22.538Z,100174.45
2019-02-22T06:02:51.334Z,100176.98
2019-02-22T06:05:20.183Z,100176.59
2019-02-22T06:07:49.292Z,100172.34
2019-02-22T06:10:18.177Z,100168.36
2019-02-22T06:12:47.112Z,100173.75
2019-02-22T06:15:15.889Z,100181.14
2019-02-22T06:17:44.703Z,100178.12
2019-02-22T06:20:13.678Z,100184.68
2019-02-22T06:22:42.471Z,100191.23
2019-02-22T06:25:11.637Z,100191.23
2019-02-22T06:27:40.809Z,100196.19
2019-02-22T06:30:09.973Z,100198.30
2019-02-22T06:32:39.069Z,100203.67
2019-02-22T06:35:09.565Z,100219.49
2019-02-22T06:37:38.435Z,100212.80
2019-02-22T06:40:07.819Z,100213.80
2019-02-22T06:42:45.257Z,100229.84
2019-02-22T06:45:07.772Z,100238.94
2019-02-22T06:47:36.649Z,100242.19
2019-02-22T06:50:05.775Z,100247.04
2019-02-22T06:52:34.644Z,100242.09
2019-02-22T06:55:03.645Z,100241.63
2019-02-22T06:57:32.425Z,100242.17
2019-02-22T07:00:01.238Z,100242.33
2019-02-22T07:02:30.033Z,100244.97
2019-02-22T07:04:58.853Z,100245.03
2019-02-22T07:07:27.676Z,100234.16
2019-02-22T07:09:56.471Z,100238.17
2019-02-22T07:12:31.006Z,100228.05
2019-02-22T07:14:59.811Z,100233.83
2019-02-22T07:17:28.616Z,100244.73
2019-02-22T07:19:57.427Z,100244.25
2019-02-22T07:22:26.293Z,100246.19
2019-02-22T07:24:55.096Z,100249.88
2019-02-22T07:27:23.889Z,100262.08
2019-02-22T07:29:52.821Z,100271.80
2019-02-22T07:32:21.697Z,100265.37
2019-02-22T07:34:51.554Z,100269.70
2019-02-22T07:37:20.349Z,100277.04
2019-02-22T07:39:49.215Z,100274.87
2019-02-22T07:42:18.076Z,100275.30
2019-02-22T07:44:47.094Z,100276.67
2019-02-22T07:47:15.895Z,100280.36
2019-02-22T07:49:44.775Z,100287.78
2019-02-22T07:52:13.594Z,100286.92
2019-02-22T07:54:42.364Z,100281.77
2019-02-22T07:57:11.244Z,100281.53
2019-02-22T07:59:40.207Z,100291.57
2019-02-22T08:02:09.080Z,100291.72
2019-02-22T08:04:37.965Z,100300.20
2019-02-22T08:07:07.063Z,100302.07
2019-02-22T08:09:36.239Z,100298.68
2019-02-22T08:12:05.410Z,100296.73
2019-02-22T08:14:34.499Z,100300.29
2019-02-22T08:17:03.337Z,100302.16
2019-02-22T08:19:34.211Z,100306.05
2019-02-22T08:22:03.613Z,100303.23
2019-02-22T08:24:32.537Z,100307.91
2019-02-22T08:27:01.338Z,100302.77
2019-02-22T08:29:30.443Z,100309.88
2019-02-22T08:31:59.488Z,100302.61
2019-02-22T08:34:28.344Z,100304.48
2019-02-22T08:36:57.176Z,100304.39
2019-02-22T08:39:26.001Z,100302.44
2019-02-22T08:41:54.845Z,100315.59
2019-02-22T08:44:23.628Z,100320.45
2019-02-22T08:46:53.321Z,100321.95
2019-02-22T08:49:22.113Z,100320.19
2019-02-22T08:51:50.919Z,100316.86
2019-02-22T08:54:19.700Z,100322.80
2019-02-22T08:56:48.600Z,100330.83
2019-02-22T08:59:17.476Z,100331.59
2019-02-22T09:01:46.295Z,100328.20
2019-02-22T09:04:15.161Z,100330.64
2019-02-22T09:06:44.144Z,100335.00
2019-02-22T09:09:12.931Z,100334.92
2019-02-22T09:11:41.749Z,100335.63
2019-02-22T09:14:10.626Z,100326.48
2019-02-22T09:16:39.464Z,100330.94
2019-02-22T09:19:08.266Z,100337.72
2019-02-22T09:21:37.051Z,100344.66
2019-02-22T09:24:05.944Z,100343.66
2019-02-22T09:26:34.755Z,100336.50
2019-02-22T09:29:03.537Z,100342.80
2019-02-22T09:31:32.413Z,100347.62
2019-02-22T09:34:01.242Z,100345.41
2019-02-22T09:36:30.116Z,100341.47
2019-02-22T09:38:58.990Z,100339.34
2019-02-22T09:41:27.781Z,100345.46
2019-02-22T09:43:56.582Z,100345.09
2019-02-22T09:46:25.375Z,100344.92
2019-02-22T09:48:55.171Z,100346.88
2019-02-22T09:51:23.976Z,100346.17
2019-02-22T09:53:52.884Z,100351.66
2019-02-22T09:56:21.738Z,100350.27
2019-02-22T09:58:50.552Z,100347.84
2019-02-22T10:01:19.440Z,100347.66
2019-02-22T10:03:48.532Z,100346.83
2019-02-22T10:06:18.339Z,100350.20
2019-02-22T10:08:47.151Z,100350.20
2019-02-22T10:11:15.944Z,100356.47
2019-02-22T10:13:44.766Z,100351.55
2019-02-22T10:16:13.564Z,100360.47
2019-02-22T10:18:42.375Z,100358.14
2019-02-22T10:21:11.160Z,100348.50
2019-02-22T10:23:39.981Z,100350.95
2019-02-22T10:26:08.817Z,100353.13
2019-02-22T10:28:37.618Z,100350.48
2019-02-22T10:31:06.482Z,100364.48
2019-02-22T10:33:36.944Z,100362.59
2019-02-22T10:36:05.992Z,100366.91
2019-02-22T10:38:35.987Z,100371.16
2019-02-22T10:41:05.050Z,100371.06
2019-02-22T10:43:33.834Z,100380.39
2019-02-22T10:46:02.636Z,100381.19
2019-02-22T10:48:31.430Z,100383.28
2019-02-22T10:51:00.216Z,100382.01
2019-02-22T10:53:29.138Z,100375.84
2019-02-22T10:55:57.911Z,100369.03
2019-02-22T10:58:27.471Z,100357.84
2019-02-22T11:00:56.387Z,100380.72
2019-02-22T11:03:25.208Z,100384.97
2019-02-22T11:05:54.007Z,100379.97
2019-02-22T11:08:22.784Z,100376.84
2019-02-22T11:10:51.559Z,100379.69
2019-02-22T11:13:21.386Z,100377.42
2019-02-22T11:15:50.324Z,100379.23
2019-02-22T11:18:19.119Z,100378.17
2019-02-22T11:20:48.072Z,100376.78
2019-02-22T11:23:16.977Z,100374.31
2019-02-22T11:25:45.926Z,100378.27
2019-02-22T11:28:14.714Z,100373.75
2019-02-22T11:30:43.503Z,100364.61
2019-02-22T11:33:12.311Z,100364.14
2019-02-22T11:35:41.087Z,100370.74
2019-02-22T11:38:09.981Z,100366.89
2019-02-22T11:40:38.776Z,100366.98
2019-02-22T11:43:07.810Z,100370.36
2019-02-22T11:45:37.019Z,100381.20
2019-02-22T11:48:09.250Z,100384.11
2019-02-22T11:50:36.646Z,100375.38
2019-02-22T11:53:05.506Z,100389.39
2019-02-22T11:55:34.434Z,100392.32
2019-02-22T11:58:03.387Z,100388.96
2019-02-22T12:00:33.652Z,100380.25
2019-02-22T12:03:15.895Z,100382.05
2019-02-22T12:05:33.098Z,100380.69
2019-02-22T12:08:03.605Z,100385.97
2019-02-22T12:10:32.736Z,100385.03
2019-02-22T12:13:01.638Z,100393.16
2019-02-22T12:15:31.488Z,100390.31
2019-02-22T12:18:00.401Z,100400.05
2019-02-22T12:20:30.154Z,100396.73
2019-02-22T12:22:58.946Z,100402.67
2019-02-22T12:25:27.811Z,100407.66
2019-02-22T12:27:56.596Z,100412.58
2019-02-22T12:30:25.818Z,100394.93
2019-02-22T12:32:54.900Z,100403.31
2019-02-22T12:35:23.888Z,100402.18
2019-02-22T12:37:52.682Z,100404.56
2019-02-22T12:40:21.477Z,100401.56
2019-02-22T12:42:50.259Z,100412.34
2019-02-22T12:45:19.157Z,100413.47
2019-02-22T12:47:47.939Z,100411.30
2019-02-22T12:50:16.834Z,100409.16
2019-02-22T12:52:45.634Z,100408.56
2019-02-22T12:55:14.505Z,100412.46
2019-02-22T12:57:43.306Z,100402.94
2019-02-22T13:00:13.132Z,100415.06
2019-02-22T13:02:41.970Z,100409.97
2019-02-22T13:05:12.607Z,100414.43
2019-02-22T13:07:41.410Z,100415.46
2019-02-22T13:10:10.569Z,100410.63
2019-02-22T13:12:39.396Z,100414.45
2019-02-22T13:15:14.011Z,100418.58
2019-02-22T13:17:40.825Z,100421.77
2019-02-22T13:20:09.898Z,100413.67
2019-02-22T13:22:38.759Z,100415.00
2019-02-22T13:25:07.895Z,100424.52
2019-02-22T13:27:36.663Z,100430.73
2019-02-22T13:30:06.833Z,100428.59
2019-02-22T13:32:35.772Z,100426.13
2019-02-22T13:35:05.051Z,100432.63
2019-02-22T13:37:33.839Z,100434.15
2019-02-22T13:40:03.275Z,100437.05
2019-02-22T13:42:32.224Z,100441.95
2019-02-22T13:45:01.115Z,100440.37
2019-02-22T13:47:30.132Z,100437.81
2019-02-22T13:49:58.996Z,100439.32
2019-02-22T13:52:27.781Z,100446.56
2019-02-22T13:54:56.571Z,100443.20
2019-02-22T13:57:25.412Z,100445.27
2019-02-22T13:59:54.215Z,100453.63
2019-02-22T14:02:23.110Z,100456.17
2019-02-22T14:04:51.973Z,100455.70
2019-02-22T14:07:20.878Z,100466.63
2019-02-22T14:09:49.656Z,100462.70
2019-02-22T14:12:18.467Z,100461.19
2019-02-22T14:14:47.251Z,100461.84
2019-02-22T14:17:16.040Z,100460.23
2019-02-22T14:19:44.825Z,100463.72
2019-02-22T14:22:13.743Z,100460.05
2019-02-22T14:24:42.512Z,100464.58
2019-02-22T14:27:11.332Z,100459.41
2019-02-22T14:29:40.149Z,100463.36
2019-02-22T14:32:08.952Z,100462.97
2019-02-22T14:34:37.825Z,100462.20
2019-02-22T14:37:06.766Z,100462.41
2019-02-22T14:39:35.640Z,100462.41
2019-02-22T14:42:04.509Z,100468.79
2019-02-22T14:44:33.286Z,100454.00
2019-02-22T14:47:02.074Z,100454.00
2019-02-22T14:49:30.875Z,100467.56
2019-02-22T14:51:59.667Z,100470.92
2019-02-22T14:54:28.519Z,100474.81
2019-02-22T14:56:57.309Z,100475.54
2019-02-22T14:59:26.212Z,100466.36
2019-02-22T15:01:55.090Z,100466.36
2019-02-22T15:04:23.881Z,100471.19
2019-02-22T15:06:52.679Z,100472.25
2019-02-22T15:09:21.474Z,100471.14
2019-02-22T15:11:50.265Z,100458.91
2019-02-22T15:14:19.056Z,100471.27
2019-02-22T15:17:09.694Z,100465.69
2019-02-22T15:19:38.486Z,100466.80
2019-02-22T15:22:07.500Z,100463.91
2019-02-22T15:24:36.284Z,100462.54
2019-02-22T15:27:05.223Z,100466.54
2019-02-22T15:29:37.076Z,100458.14
2019-02-22T15:32:06.007Z,100464.25
2019-02-22T15:34:34.800Z,100465.94
2019-02-22T15:37:03.590Z,100461.30
2019-02-22T15:39:32.372Z,100466.53
2019-02-22T15:42:01.161Z,100468.08
2019-02-22T15:44:30.005Z,100469.98
2019-02-22T15:46:58.794Z,100474.55
2019-02-22T15:49:28.033Z,100485.80
2019-02-22T15:51:57.077Z,100480.43
2019-02-22T15:54:26.233Z,100483.70
2019-02-22T15:56:55.282Z,100486.25
2019-02-22T15:59:24.345Z,100485.13
2019-02-22T16:01:55.770Z,100495.58
2019-02-22T16:04:49.077Z,100499.89
2019-02-22T16:07:18.069Z,100497.16
2019-02-22T16:09:46.914Z,100496.03
2019-02-22T16:12:15.808Z,100503.19
2019-02-22T16:14:44.573Z,100502.22
2019-02-22T16:17:13.370Z,100498.63
2019-02-22T16:19:42.154Z,100493.73
2019-02-22T16:22:10.962Z,100497.70
2019-02-22T16:24:40.514Z,100489.13
2019-02-22T16:27:09.382Z,100490.23
2019-02-22T16:29:38.174Z,100495.04
2019-02-22T16:32:07.106Z,100498.67
2019-02-22T16:34:43.560Z,100508.77
2019-02-22T16:37:06.491Z,100500.63
2019-02-22T16:39:35.373Z,100507.61
2019-02-22T16:42:04.302Z,100505.00
2019-02-22T16:44:33.363Z,100505.02
2019-02-22T16:47:02.214Z,100502.38
2019-02-22T16:49:31.078Z,100509.83
2019-02-22T16:51:59.862Z,100514.28
2019-02-22T16:54:28.651Z,100509.97
2019-02-22T16:56:57.438Z,100514.09
2019-02-22T16:59:26.443Z,100510.33
2019-02-22T17:01:55.267Z,100518.85
2019-02-22T17:04:24.153Z,100509.36
2019-02-22T17:06:53.018Z,100506.41
2019-02-22T17:09:21.805Z,100510.60
2019-02-22T17:11:50.953Z,100512.55
2019-02-22T17:14:20.104Z,100512.24
2019-02-22T17:16:49.330Z,100514.56
2019-02-22T17:19:18.317Z,100511.63
2019-02-22T17:21:47.102Z,100521.25
2019-02-22T17:24:15.962Z,100537.25
2019-02-22T17:26:44.733Z,100534.22
2019-02-22T17:29:13.524Z,100541.56
2019-02-22T17:31:43.330Z,100537.87
2019-02-22T17:34:12.201Z,100536.27
2019-02-22T17:36:41.089Z,100539.42
2019-02-22T17:39:10.026Z,100528.80
2019-02-22T17:41:38.894Z,100534.30
2019-02-22T17:44:07.761Z,100529.38
2019-02-22T17:46:36.552Z,100528.92
2019-02-22T17:49:05.337Z,100524.49
2019-02-22T17:51:34.190Z,100525.59
2019-02-22T17:54:02.989Z,100531.95
2019-02-22T17:56:31.754Z,100523.46
2019-02-22T17:59:00.537Z,100529.98
2019-02-22T18:01:29.309Z,100533.41
2019-02-22T18:03:58.096Z,100542.82
2019-02-22T18:06:26.901Z,100542.02
2019-02-22T18:08:55.687Z,100545.81
2019-02-22T18:11:24.477Z,100555.95
2019-02-22T18:13:53.267Z,100557.70
2019-02-22T18:16:22.047Z,100555.87
2019-02-22T18:18:50.922Z,100560.93
2019-02-22T18:21:19.772Z,100564.64
2019-02-22T18:23:48.631Z,100566.66
2019-02-22T18:26:17.406Z,100573.48
2019-02-22T18:28:46.191Z,100568.20
2019-02-22T18:31:15.726Z,100570.03
2019-02-22T18:33:44.633Z,100573.81
2019-02-22T18:36:13.446Z,100571.19
2019-02-22T18:38:42.233Z,100579.25
2019-02-22T18:41:11.080Z,100574.32
2019-02-22T18:43:39.942Z,100574.78
2019-02-22T18:46:08.814Z,100577.81
2019-02-22T18:48:37.617Z,100582.25
2019-02-22T18:51:06.498Z,100576.91
2019-02-22T18:53:35.282Z,100572.17
2019-02-22T18:56:04.128Z,100578.21
2019-02-22T18:58:33.040Z,100576.88
2019-02-22T19:01:02.135Z,100578.05
2019-02-22T19:03:31.280Z,100581.16
2019-02-22T19:06:00.138Z,100578.02
2019-02-22T19:08:32.401Z,100581.04
2019-02-22T19:10:59.496Z,100587.20
2019-02-22T19:13:28.301Z,100587.79
2019-02-22T19:15:57.083Z,100588.38
2019-02-22T19:18:25.869Z,100591.29
2019-02-22T19:20:54.645Z,100593.56
2019-02-22T19:23:23.601Z,100593.33
2019-02-22T19:25:52.399Z,100583.00
2019-02-22T19:28:21.349Z,100583.86
2019-02-22T19:30:50.239Z,100587.64
2019-02-22T19:33:19.036Z,100581.03
2019-02-22T19:35:47.847Z,100589.98
2019-02-22T19:38:17.602Z,100590.57
2019-02-22T19:40:46.390Z,100591.66
2019-02-22T19:43:15.245Z,100596.37
2019-02-22T19:45:44.093Z,100599.73
2019-02-22T19:48:12.869Z,100600.81
2019-02-22T19:50:41.913Z,100605.48
2019-02-22T19:53:10.727Z,100608.95
2019-02-22T19:55:39.559Z,100605.38
2019-02-22T19:58:08.332Z,100600.59
2019-02-22T20:00:37.192Z,100601.30
2019-02-22T20:03:06.108Z,100608.79
2019-02-22T20:05:35.130Z,100609.71
2019-02-22T20:08:04.241Z,100613.06
2019-02-22T20:10:33.393Z,100615.73
2019-02-22T20:13:02.520Z,100617.77
2019-02-22T20:15:31.544Z,100618.03
2019-02-22T20:18:01.355Z,100614.25
2019-02-22T20:20:30.454Z,100615.31
2019-02-22T20:22:59.249Z,100618.17
2019-02-22T20:25:28.186Z,100616.81
2019-02-22T20:27:57.021Z,100619.34
2019-02-22T20:30:25.802Z,100620.66
2019-02-22T20:32:54.602Z,100620.02
2019-02-22T20:35:23.624Z,100622.02
2019-02-22T20:37:53.402Z,100630.55
2019-02-22T20:40:22.580Z,100634.30
2019-02-22T20:42:51.375Z,100639.05
2019-02-22T20:45:20.338Z,100644.34
2019-02-22T20:47:49.272Z,100647.67
2019-02-22T20:50:18.218Z,100649.21
2019-02-22T20:52:47.170Z,100650.08
2019-02-22T20:55:16.085Z,100653.13
2019-02-22T20:57:44.860Z,100660.30
2019-02-22T21:00:16.287Z,100659.16
2019-02-22T21:02:45.096Z,100659.91
2019-02-22T21:05:13.968Z,100660.54
2019-02-22T21:07:42.746Z,100670.32
2019-02-22T21:10:13.669Z,100676.20
2019-02-22T21:12:42.463Z,100686.42
2019-02-22T21:15:12.097Z,100689.66
2019-02-22T21:17:40.979Z,100704.09
2019-02-22T21:20:10.744Z,100697.30
2019-02-22T21:22:39.608Z,100701.25
2019-02-22T21:25:09.243Z,100703.48
2019-02-22T21:27:38.093Z,100703.58
2019-02-22T21:30:07.665Z,100709.96
2019-02-22T21:32:36.443Z,100710.45
2019-02-22T21:35:05.349Z,100706.78
2019-02-22T21:37:34.215Z,100698.17
2019-02-22T21:40:03.014Z,100695.50
2019-02-22T21:42:31.884Z,100691.39
2019-02-22T21:45:00.927Z,100685.42
2019-02-22T21:47:29.986Z,100693.01
2019-02-22T21:49:59.013Z,100687.19
2019-02-22T21:52:27.987Z,100692.26
2019-02-22T21:54:57.028Z,100689.86
2019-02-22T21:57:25.814Z,100694.55
2019-02-22T22:02:40.654Z,100691.70
2019-02-22T22:05:09.690Z,100697.31
2019-02-22T22:07:38.478Z,100691.45
2019-02-22T22:10:07.306Z,100687.62
2019-02-22T22:12:36.110Z,100683.17
2019-02-22T22:15:05.320Z,100686.41
2019-02-22T22:17:34.107Z,100683.86
2019-02-22T22:20:03.096Z,100683.75
2019-02-22T22:22:31.894Z,100685.42
2019-02-22T22:25:00.689Z,100695.94
2019-02-22T22:27:29.461Z,100691.08
2019-02-22T22:29:58.349Z,100693.20
2019-02-22T22:32:27.139Z,100702.47
2019-02-22T22:34:55.968Z,100701.77
2019-02-22T22:37:24.954Z,100706.23
2019-02-22T22:39:53.757Z,100704.23
2019-02-22T22:42:22.531Z,100707.17
2019-02-22T22:44:51.998Z,100702.67
2019-02-22T22:47:20.815Z,100703.19
2019-02-22T22:49:49.596Z,100707.70
2019-02-22T22:52:18.389Z,100709.92
2019-02-22T22:54:47.183Z,100706.05
2019-02-22T22:57:15.982Z,100706.98
2019-02-22T22:59:44.780Z,100713.07
2019-02-22T23:02:13.671Z,100715.68
2019-02-22T23:04:42.517Z,100708.52
2019-02-22T23:07:11.401Z,100702.48
2019-02-22T23:09:40.294Z,100707.04
2019-02-22T23:12:09.247Z,100715.70
2019-02-22T23:14:38.059Z,100708.13
2019-02-22T23:17:06.844Z,100712.05
2019-02-22T23:19:35.633Z,100716.02
2019-02-22T23:22:04.582Z,100723.57
2019-02-22T23:24:33.487Z,100736.66
2019-02-22T23:27:02.295Z,100722.97
2019-02-22T23:29:31.084Z,100726.93
2019-02-22T23:31:59.874Z,100728.13
2019-02-22T23:34:28.730Z,100731.92
2019-02-22T23:36:57.612Z,100739.66
2019-02-22T23:39:26.414Z,100739.19
2019-02-22T23:41:55.263Z,100747.69
2019-02-22T23:44:24.040Z,100747.27
2019-02-22T23:46:53.778Z,100750.73
2019-02-22T23:49:22.592Z,100753.05
2019-02-22T23:51:51.463Z,100756.63
2019-02-22T23:54:20.331Z,100750.73
2019-02-22T23:56:49.215Z,100760.56
2019-02-22T23:59:18.010Z,100765.95
